sensor_id;sensor_type;location;lat;lon;timestamp;temperature;humidity
29341;DHT22;16337;59.536;13.468;2023-02-15T00:01:30;1.20;99.90
29341;DHT22;16337;59.536;13.468;2023-02-15T00:03:56;1.20;99.90
29341;DHT22;16337;59.536;13.468;2023-02-15T00:06:22;1.20;99.90
29341;DHT22;16337;59.536;13.468;2023-02-15T00:08:48;1.20;99.90
29341;DHT22;16337;59.536;13.468;2023-02-15T00:11:17;1.20;99.90
29341;DHT22;16337;59.536;13.468;2023-02-15T00:14:04;1.20;99.90
29341;DHT22;16337;59.536;13.468;2023-02-15T00:16:30;1.20;99.90
29341;DHT22;16337;59.536;13.468;2023-02-15T00:18:55;1.20;99.90
29341;DHT22;16337;59.536;13.468;2023-02-15T00:21:21;1.20;99.90
29341;DHT22;16337;59.536;13.468;2023-02-15T00:23:47;1.20;99.90
29341;DHT22;16337;59.536;13.468;2023-02-15T00:26:12;1.20;99.90
29341;DHT22;16337;59.536;13.468;2023-02-15T00:28:38;1.20;99.90
29341;DHT22;16337;59.536;13.468;2023-02-15T00:31:09;1.20;99.90
29341;DHT22;16337;59.536;13.468;2023-02-15T00:33:36;1.20;99.90
29341;DHT22;16337;59.536;13.468;2023-02-15T00:36:03;1.20;99.90
29341;DHT22;16337;59.536;13.468;2023-02-15T00:38:30;1.20;99.90
29341;DHT22;16337;59.536;13.468;2023-02-15T00:40:58;1.30;99.90
29341;DHT22;16337;59.536;13.468;2023-02-15T00:43:25;1.30;99.90
29341;DHT22;16337;59.536;13.468;2023-02-15T00:45:51;1.30;99.90
29341;DHT22;16337;59.536;13.468;2023-02-15T00:48:17;1.30;99.90
29341;DHT22;16337;59.536;13.468;2023-02-15T00:50:49;1.30;99.90
29341;DHT22;16337;59.536;13.468;2023-02-15T00:53:15;1.30;99.90
29341;DHT22;16337;59.536;13.468;2023-02-15T00:55:41;1.30;99.90
29341;DHT22;16337;59.536;13.468;2023-02-15T00:58:07;1.30;99.90
29341;DHT22;16337;59.536;13.468;2023-02-15T01:00:33;1.30;99.90
29341;DHT22;16337;59.536;13.468;2023-02-15T01:02:59;1.30;99.90
29341;DHT22;16337;59.536;13.468;2023-02-15T01:05:25;1.30;99.90
29341;DHT22;16337;59.536;13.468;2023-02-15T01:07:51;1.30;99.90
29341;DHT22;16337;59.536;13.468;2023-02-15T01:10:16;1.40;99.90
29341;DHT22;16337;59.536;13.468;2023-02-15T01:12:42;1.40;99.90
29341;DHT22;16337;59.536;13.468;2023-02-15T01:15:08;1.40;99.90
29341;DHT22;16337;59.536;13.468;2023-02-15T01:17:34;1.50;99.90
29341;DHT22;16337;59.536;13.468;2023-02-15T01:20:00;1.50;99.90
29341;DHT22;16337;59.536;13.468;2023-02-15T01:22:26;1.50;99.90
29341;DHT22;16337;59.536;13.468;2023-02-15T01:24:52;1.50;99.90
29341;DHT22;16337;59.536;13.468;2023-02-15T01:27:18;1.60;99.90
29341;DHT22;16337;59.536;13.468;2023-02-15T01:29:44;1.60;99.90
29341;DHT22;16337;59.536;13.468;2023-02-15T01:32:10;1.80;99.90
29341;DHT22;16337;59.536;13.468;2023-02-15T01:34:35;1.80;99.90
29341;DHT22;16337;59.536;13.468;2023-02-15T01:37:01;1.90;99.90
29341;DHT22;16337;59.536;13.468;2023-02-15T01:39:27;1.90;99.90
29341;DHT22;16337;59.536;13.468;2023-02-15T01:41:52;2.00;99.90
29341;DHT22;16337;59.536;13.468;2023-02-15T01:44:48;2.00;99.90
29341;DHT22;16337;59.536;13.468;2023-02-15T01:50:03;2.10;99.90
29341;DHT22;16337;59.536;13.468;2023-02-15T01:52:30;2.10;99.90
29341;DHT22;16337;59.536;13.468;2023-02-15T01:54:56;2.10;99.90
29341;DHT22;16337;59.536;13.468;2023-02-15T01:57:24;2.10;99.90
29341;DHT22;16337;59.536;13.468;2023-02-15T01:59:53;2.10;99.90
29341;DHT22;16337;59.536;13.468;2023-02-15T02:02:22;2.10;99.90
29341;DHT22;16337;59.536;13.468;2023-02-15T02:04:56;2.10;99.90
29341;DHT22;16337;59.536;13.468;2023-02-15T02:07:27;2.10;99.90
29341;DHT22;16337;59.536;13.468;2023-02-15T02:09:53;2.10;99.90
29341;DHT22;16337;59.536;13.468;2023-02-15T02:12:21;2.20;99.90
29341;DHT22;16337;59.536;13.468;2023-02-15T02:14:49;2.20;99.90
29341;DHT22;16337;59.536;13.468;2023-02-15T02:17:59;2.20;99.90
29341;DHT22;16337;59.536;13.468;2023-02-15T02:34:47;2.10;99.90
29341;DHT22;16337;59.536;13.468;2023-02-15T02:37:19;2.10;99.90
29341;DHT22;16337;59.536;13.468;2023-02-15T02:42:44;2.10;99.90
29341;DHT22;16337;59.536;13.468;2023-02-15T02:45:30;2.10;99.90
29341;DHT22;16337;59.536;13.468;2023-02-15T02:48:12;2.20;99.90
29341;DHT22;16337;59.536;13.468;2023-02-15T02:50:39;2.20;99.90
29341;DHT22;16337;59.536;13.468;2023-02-15T02:53:06;2.10;99.90
29341;DHT22;16337;59.536;13.468;2023-02-15T02:55:55;2.10;99.90
29341;DHT22;16337;59.536;13.468;2023-02-15T03:02:03;2.20;99.90
29341;DHT22;16337;59.536;13.468;2023-02-15T03:04:17;2.20;99.90
29341;DHT22;16337;59.536;13.468;2023-02-15T03:09:29;2.20;99.90
29341;DHT22;16337;59.536;13.468;2023-02-15T03:12:00;2.20;99.90
29341;DHT22;16337;59.536;13.468;2023-02-15T03:14:29;2.20;99.90
29341;DHT22;16337;59.536;13.468;2023-02-15T03:16:55;2.20;99.90
29341;DHT22;16337;59.536;13.468;2023-02-15T03:19:25;2.20;99.90
29341;DHT22;16337;59.536;13.468;2023-02-15T03:21:57;2.20;99.90
29341;DHT22;16337;59.536;13.468;2023-02-15T03:24:34;2.20;99.90
29341;DHT22;16337;59.536;13.468;2023-02-15T03:27:03;2.20;99.90
29341;DHT22;16337;59.536;13.468;2023-02-15T03:29:32;2.30;99.90
29341;DHT22;16337;59.536;13.468;2023-02-15T03:32:00;2.30;99.90
29341;DHT22;16337;59.536;13.468;2023-02-15T03:34:28;2.20;99.90
29341;DHT22;16337;59.536;13.468;2023-02-15T03:45:38;2.20;99.90
29341;DHT22;16337;59.536;13.468;2023-02-15T03:48:22;2.20;99.90
29341;DHT22;16337;59.536;13.468;2023-02-15T03:50:49;2.20;99.90
29341;DHT22;16337;59.536;13.468;2023-02-15T03:53:34;2.20;99.90
29341;DHT22;16337;59.536;13.468;2023-02-15T03:56:00;2.20;99.90
29341;DHT22;16337;59.536;13.468;2023-02-15T03:58:26;2.20;99.90
29341;DHT22;16337;59.536;13.468;2023-02-15T04:01:17;2.20;99.90
29341;DHT22;16337;59.536;13.468;2023-02-15T04:04:12;2.20;99.90
29341;DHT22;16337;59.536;13.468;2023-02-15T04:06:41;2.20;99.90
29341;DHT22;16337;59.536;13.468;2023-02-15T04:09:06;2.20;99.90
29341;DHT22;16337;59.536;13.468;2023-02-15T04:11:51;2.20;99.90
29341;DHT22;16337;59.536;13.468;2023-02-15T04:14:16;2.20;99.90
29341;DHT22;16337;59.536;13.468;2023-02-15T04:17:00;2.20;99.90
29341;DHT22;16337;59.536;13.468;2023-02-15T04:19:26;2.20;99.90
29341;DHT22;16337;59.536;13.468;2023-02-15T04:22:10;2.20;99.90
29341;DHT22;16337;59.536;13.468;2023-02-15T04:24:54;2.20;99.90
29341;DHT22;16337;59.536;13.468;2023-02-15T04:27:40;2.20;99.90
29341;DHT22;16337;59.536;13.468;2023-02-15T04:30:07;2.20;99.90
29341;DHT22;16337;59.536;13.468;2023-02-15T04:32:33;2.20;99.90
29341;DHT22;16337;59.536;13.468;2023-02-15T04:34:59;2.20;99.90
29341;DHT22;16337;59.536;13.468;2023-02-15T04:37:25;2.20;99.90
29341;DHT22;16337;59.536;13.468;2023-02-15T04:39:51;2.20;99.90
29341;DHT22;16337;59.536;13.468;2023-02-15T04:42:16;2.20;99.90
29341;DHT22;16337;59.536;13.468;2023-02-15T04:44:43;2.20;99.90
29341;DHT22;16337;59.536;13.468;2023-02-15T04:47:08;2.20;99.90
29341;DHT22;16337;59.536;13.468;2023-02-15T04:49:34;2.20;99.90
29341;DHT22;16337;59.536;13.468;2023-02-15T04:52:00;2.20;99.90
29341;DHT22;16337;59.536;13.468;2023-02-15T04:54:26;2.20;99.90
29341;DHT22;16337;59.536;13.468;2023-02-15T04:56:51;2.20;99.90
29341;DHT22;16337;59.536;13.468;2023-02-15T04:59:20;2.20;99.90
29341;DHT22;16337;59.536;13.468;2023-02-15T05:01:46;2.20;99.90
29341;DHT22;16337;59.536;13.468;2023-02-15T05:04:11;2.20;99.90
29341;DHT22;16337;59.536;13.468;2023-02-15T05:06:37;2.20;99.90
29341;DHT22;16337;59.536;13.468;2023-02-15T05:09:03;2.20;99.90
29341;DHT22;16337;59.536;13.468;2023-02-15T05:11:28;2.20;99.90
29341;DHT22;16337;59.536;13.468;2023-02-15T05:13:54;2.20;99.90
29341;DHT22;16337;59.536;13.468;2023-02-15T05:16:20;2.20;99.90
29341;DHT22;16337;59.536;13.468;2023-02-15T05:18:46;2.20;99.90
29341;DHT22;16337;59.536;13.468;2023-02-15T05:21:11;2.20;99.90
29341;DHT22;16337;59.536;13.468;2023-02-15T05:23:39;2.20;99.90
29341;DHT22;16337;59.536;13.468;2023-02-15T05:26:26;2.20;99.90
29341;DHT22;16337;59.536;13.468;2023-02-15T05:29:11;2.20;99.90
29341;DHT22;16337;59.536;13.468;2023-02-15T05:31:37;2.20;99.90
29341;DHT22;16337;59.536;13.468;2023-02-15T05:34:04;2.20;99.90
29341;DHT22;16337;59.536;13.468;2023-02-15T05:36:30;2.20;99.90
29341;DHT22;16337;59.536;13.468;2023-02-15T05:38:56;2.20;99.90
29341;DHT22;16337;59.536;13.468;2023-02-15T05:41:21;2.20;99.90
29341;DHT22;16337;59.536;13.468;2023-02-15T05:43:47;2.20;99.90
29341;DHT22;16337;59.536;13.468;2023-02-15T05:46:13;2.20;99.90
29341;DHT22;16337;59.536;13.468;2023-02-15T05:48:39;2.20;99.90
29341;DHT22;16337;59.536;13.468;2023-02-15T05:51:11;2.20;99.90
29341;DHT22;16337;59.536;13.468;2023-02-15T05:53:41;2.20;99.90
29341;DHT22;16337;59.536;13.468;2023-02-15T05:56:08;2.20;99.90
29341;DHT22;16337;59.536;13.468;2023-02-15T05:58:37;2.20;99.90
29341;DHT22;16337;59.536;13.468;2023-02-15T06:01:11;2.20;99.90
29341;DHT22;16337;59.536;13.468;2023-02-15T06:03:37;2.20;99.90
29341;DHT22;16337;59.536;13.468;2023-02-15T06:06:03;2.20;99.90
29341;DHT22;16337;59.536;13.468;2023-02-15T06:08:31;2.20;99.90
29341;DHT22;16337;59.536;13.468;2023-02-15T06:10:57;2.20;99.90
29341;DHT22;16337;59.536;13.468;2023-02-15T06:13:22;2.30;99.90
29341;DHT22;16337;59.536;13.468;2023-02-15T06:15:48;2.30;99.90
29341;DHT22;16337;59.536;13.468;2023-02-15T06:18:14;2.20;99.90
29341;DHT22;16337;59.536;13.468;2023-02-15T06:20:40;2.20;99.90
29341;DHT22;16337;59.536;13.468;2023-02-15T06:23:05;2.20;99.90
29341;DHT22;16337;59.536;13.468;2023-02-15T06:25:31;2.20;99.90
29341;DHT22;16337;59.536;13.468;2023-02-15T06:27:57;2.20;99.90
29341;DHT22;16337;59.536;13.468;2023-02-15T06:30:22;2.20;99.90
29341;DHT22;16337;59.536;13.468;2023-02-15T06:32:48;2.30;99.90
29341;DHT22;16337;59.536;13.468;2023-02-15T06:35:14;2.20;99.90
29341;DHT22;16337;59.536;13.468;2023-02-15T06:37:40;2.30;99.90
29341;DHT22;16337;59.536;13.468;2023-02-15T06:40:06;2.20;99.90
29341;DHT22;16337;59.536;13.468;2023-02-15T06:42:32;2.30;99.90
29341;DHT22;16337;59.536;13.468;2023-02-15T06:44:58;2.20;99.90
29341;DHT22;16337;59.536;13.468;2023-02-15T06:47:25;2.30;99.90
29341;DHT22;16337;59.536;13.468;2023-02-15T06:49:51;2.20;99.90
29341;DHT22;16337;59.536;13.468;2023-02-15T06:52:17;2.30;99.90
29341;DHT22;16337;59.536;13.468;2023-02-15T06:54:43;2.30;99.90
29341;DHT22;16337;59.536;13.468;2023-02-15T06:57:08;2.30;99.90
29341;DHT22;16337;59.536;13.468;2023-02-15T06:59:35;2.30;99.90
29341;DHT22;16337;59.536;13.468;2023-02-15T07:02:00;2.30;99.90
29341;DHT22;16337;59.536;13.468;2023-02-15T07:04:26;2.20;99.90
29341;DHT22;16337;59.536;13.468;2023-02-15T07:06:54;2.20;99.90
29341;DHT22;16337;59.536;13.468;2023-02-15T07:09:19;2.20;99.90
29341;DHT22;16337;59.536;13.468;2023-02-15T07:11:45;2.20;99.90
29341;DHT22;16337;59.536;13.468;2023-02-15T07:14:29;2.30;99.90
29341;DHT22;16337;59.536;13.468;2023-02-15T07:16:55;2.30;99.90
29341;DHT22;16337;59.536;13.468;2023-02-15T07:19:21;2.30;99.90
29341;DHT22;16337;59.536;13.468;2023-02-15T07:21:46;2.30;99.90
29341;DHT22;16337;59.536;13.468;2023-02-15T07:24:12;2.30;99.90
29341;DHT22;16337;59.536;13.468;2023-02-15T07:26:39;2.30;99.90
29341;DHT22;16337;59.536;13.468;2023-02-15T07:29:05;2.30;99.90
29341;DHT22;16337;59.536;13.468;2023-02-15T07:31:30;2.30;99.90
29341;DHT22;16337;59.536;13.468;2023-02-15T07:33:56;2.30;99.90
29341;DHT22;16337;59.536;13.468;2023-02-15T07:36:22;2.30;99.90
29341;DHT22;16337;59.536;13.468;2023-02-15T07:38:48;2.30;99.90
29341;DHT22;16337;59.536;13.468;2023-02-15T07:41:14;2.30;99.90
29341;DHT22;16337;59.536;13.468;2023-02-15T07:43:43;2.30;99.90
29341;DHT22;16337;59.536;13.468;2023-02-15T07:46:11;2.30;99.90
29341;DHT22;16337;59.536;13.468;2023-02-15T07:48:39;2.30;99.90
29341;DHT22;16337;59.536;13.468;2023-02-15T07:51:07;2.40;99.90
29341;DHT22;16337;59.536;13.468;2023-02-15T07:53:33;2.40;99.90
29341;DHT22;16337;59.536;13.468;2023-02-15T07:56:00;2.40;99.90
29341;DHT22;16337;59.536;13.468;2023-02-15T07:58:26;2.30;99.90
29341;DHT22;16337;59.536;13.468;2023-02-15T08:01:13;2.40;99.90
29341;DHT22;16337;59.536;13.468;2023-02-15T08:03:39;2.40;99.90
29341;DHT22;16337;59.536;13.468;2023-02-15T08:06:04;2.40;99.90
29341;DHT22;16337;59.536;13.468;2023-02-15T08:08:30;2.40;99.90
29341;DHT22;16337;59.536;13.468;2023-02-15T08:11:02;2.40;99.90
29341;DHT22;16337;59.536;13.468;2023-02-15T08:13:48;2.40;99.90
29341;DHT22;16337;59.536;13.468;2023-02-15T08:18:55;2.40;99.90
29341;DHT22;16337;59.536;13.468;2023-02-15T08:21:21;2.40;99.90
29341;DHT22;16337;59.536;13.468;2023-02-15T08:23:47;2.40;99.90
29341;DHT22;16337;59.536;13.468;2023-02-15T08:26:13;2.40;99.90
29341;DHT22;16337;59.536;13.468;2023-02-15T08:28:40;2.40;99.90
29341;DHT22;16337;59.536;13.468;2023-02-15T08:31:11;2.50;99.90
29341;DHT22;16337;59.536;13.468;2023-02-15T08:33:38;2.50;99.90
29341;DHT22;16337;59.536;13.468;2023-02-15T08:36:06;2.50;99.90
29341;DHT22;16337;59.536;13.468;2023-02-15T08:38:33;2.50;99.90
29341;DHT22;16337;59.536;13.468;2023-02-15T08:41:16;2.50;99.90
29341;DHT22;16337;59.536;13.468;2023-02-15T08:43:42;2.50;99.90
29341;DHT22;16337;59.536;13.468;2023-02-15T08:46:10;2.50;99.90
29341;DHT22;16337;59.536;13.468;2023-02-15T08:48:36;2.50;99.90
29341;DHT22;16337;59.536;13.468;2023-02-15T08:51:13;2.50;99.90
29341;DHT22;16337;59.536;13.468;2023-02-15T08:53:41;2.50;99.90
29341;DHT22;16337;59.536;13.468;2023-02-15T08:56:08;2.50;99.90
29341;DHT22;16337;59.536;13.468;2023-02-15T08:58:34;2.50;99.90
29341;DHT22;16337;59.536;13.468;2023-02-15T09:01:01;2.50;99.90
29341;DHT22;16337;59.536;13.468;2023-02-15T09:03:29;2.50;99.90
29341;DHT22;16337;59.536;13.468;2023-02-15T09:06:00;2.60;99.90
29341;DHT22;16337;59.536;13.468;2023-02-15T09:08:26;2.50;99.90
29341;DHT22;16337;59.536;13.468;2023-02-15T09:10:52;2.60;99.90
29341;DHT22;16337;59.536;13.468;2023-02-15T09:13:18;2.60;99.90
29341;DHT22;16337;59.536;13.468;2023-02-15T09:15:44;2.50;99.90
29341;DHT22;16337;59.536;13.468;2023-02-15T09:18:10;2.60;99.90
29341;DHT22;16337;59.536;13.468;2023-02-15T09:20:37;2.60;99.90
29341;DHT22;16337;59.536;13.468;2023-02-15T09:23:03;2.60;99.90
29341;DHT22;16337;59.536;13.468;2023-02-15T09:25:29;2.60;99.90
29341;DHT22;16337;59.536;13.468;2023-02-15T09:27:54;2.60;99.90
29341;DHT22;16337;59.536;13.468;2023-02-15T09:30:20;2.60;99.90
29341;DHT22;16337;59.536;13.468;2023-02-15T09:32:47;2.60;99.90
29341;DHT22;16337;59.536;13.468;2023-02-15T09:35:13;2.60;99.90
29341;DHT22;16337;59.536;13.468;2023-02-15T09:37:39;2.60;99.90
29341;DHT22;16337;59.536;13.468;2023-02-15T09:40:05;2.60;99.90
29341;DHT22;16337;59.536;13.468;2023-02-15T09:48:41;2.60;99.90
29341;DHT22;16337;59.536;13.468;2023-02-15T09:51:33;2.70;99.90
29341;DHT22;16337;59.536;13.468;2023-02-15T09:54:20;2.60;99.90
29341;DHT22;16337;59.536;13.468;2023-02-15T09:56:53;2.60;99.90
29341;DHT22;16337;59.536;13.468;2023-02-15T10:02:11;2.70;99.90
29341;DHT22;16337;59.536;13.468;2023-02-15T10:09:48;2.70;99.90
29341;DHT22;16337;59.536;13.468;2023-02-15T10:23:56;2.80;99.90
29341;DHT22;16337;59.536;13.468;2023-02-15T10:26:48;2.80;99.90
29341;DHT22;16337;59.536;13.468;2023-02-15T10:29:18;2.80;99.90
29341;DHT22;16337;59.536;13.468;2023-02-15T10:31:57;2.80;99.90
29341;DHT22;16337;59.536;13.468;2023-02-15T10:34:38;2.80;99.90
29341;DHT22;16337;59.536;13.468;2023-02-15T10:40:38;2.80;99.90
29341;DHT22;16337;59.536;13.468;2023-02-15T10:47:58;2.90;99.90
29341;DHT22;16337;59.536;13.468;2023-02-15T10:50:44;2.90;99.90
29341;DHT22;16337;59.536;13.468;2023-02-15T11:04:45;2.80;99.90
29341;DHT22;16337;59.536;13.468;2023-02-15T11:07:20;2.80;99.90
29341;DHT22;16337;59.536;13.468;2023-02-15T11:12:42;2.80;99.90
29341;DHT22;16337;59.536;13.468;2023-02-15T11:18:02;2.80;99.90
29341;DHT22;16337;59.536;13.468;2023-02-15T11:20:54;2.80;99.90
29341;DHT22;16337;59.536;13.468;2023-02-15T11:23:21;2.80;99.90
29341;DHT22;16337;59.536;13.468;2023-02-15T11:29:06;2.80;99.90
29341;DHT22;16337;59.536;13.468;2023-02-15T11:31:49;2.80;99.90
29341;DHT22;16337;59.536;13.468;2023-02-15T11:34:36;2.80;99.90
29341;DHT22;16337;59.536;13.468;2023-02-15T11:37:12;2.80;99.90
29341;DHT22;16337;59.536;13.468;2023-02-15T11:39:39;2.70;99.90
29341;DHT22;16337;59.536;13.468;2023-02-15T11:42:13;2.70;99.90
29341;DHT22;16337;59.536;13.468;2023-02-15T11:44:50;2.70;99.90
29341;DHT22;16337;59.536;13.468;2023-02-15T11:47:18;2.70;99.90
29341;DHT22;16337;59.536;13.468;2023-02-15T11:49:45;2.70;99.90
29341;DHT22;16337;59.536;13.468;2023-02-15T11:52:14;2.70;99.90
29341;DHT22;16337;59.536;13.468;2023-02-15T11:54:43;2.80;99.90
29341;DHT22;16337;59.536;13.468;2023-02-15T11:59:56;2.70;99.90
29341;DHT22;16337;59.536;13.468;2023-02-15T12:02:22;2.80;99.90
29341;DHT22;16337;59.536;13.468;2023-02-15T12:05:03;2.70;99.90
29341;DHT22;16337;59.536;13.468;2023-02-15T12:07:40;2.70;99.90
29341;DHT22;16337;59.536;13.468;2023-02-15T12:10:27;2.70;99.90
29341;DHT22;16337;59.536;13.468;2023-02-15T12:13:15;2.60;99.90
29341;DHT22;16337;59.536;13.468;2023-02-15T12:15:50;2.70;99.90
29341;DHT22;16337;59.536;13.468;2023-02-15T12:18:40;2.70;99.90
29341;DHT22;16337;59.536;13.468;2023-02-15T12:21:14;2.70;99.90
29341;DHT22;16337;59.536;13.468;2023-02-15T12:23:48;2.70;99.90
29341;DHT22;16337;59.536;13.468;2023-02-15T12:26:30;2.70;99.90
29341;DHT22;16337;59.536;13.468;2023-02-15T12:29:00;2.70;99.90
29341;DHT22;16337;59.536;13.468;2023-02-15T12:31:39;2.70;99.90
29341;DHT22;16337;59.536;13.468;2023-02-15T12:34:32;2.70;99.90
29341;DHT22;16337;59.536;13.468;2023-02-15T12:37:07;2.70;99.90
29341;DHT22;16337;59.536;13.468;2023-02-15T12:39:34;2.70;99.90
29341;DHT22;16337;59.536;13.468;2023-02-15T12:42:14;2.80;99.90
29341;DHT22;16337;59.536;13.468;2023-02-15T12:51:08;2.70;99.90
29341;DHT22;16337;59.536;13.468;2023-02-15T12:53:36;2.70;99.90
29341;DHT22;16337;59.536;13.468;2023-02-15T12:56:05;2.80;99.90
29341;DHT22;16337;59.536;13.468;2023-02-15T12:58:41;2.70;99.90
29341;DHT22;16337;59.536;13.468;2023-02-15T13:01:13;2.70;99.90
29341;DHT22;16337;59.536;13.468;2023-02-15T13:06:21;2.60;99.90
29341;DHT22;16337;59.536;13.468;2023-02-15T13:08:52;2.70;99.90
29341;DHT22;16337;59.536;13.468;2023-02-15T13:11:28;2.60;99.90
29341;DHT22;16337;59.536;13.468;2023-02-15T13:14:02;2.60;99.90
29341;DHT22;16337;59.536;13.468;2023-02-15T13:18:57;2.60;99.90
29341;DHT22;16337;59.536;13.468;2023-02-15T13:21:27;2.50;99.90
29341;DHT22;16337;59.536;13.468;2023-02-15T13:24:00;2.50;99.90
29341;DHT22;16337;59.536;13.468;2023-02-15T13:26:30;2.50;99.90
29341;DHT22;16337;59.536;13.468;2023-02-15T13:29:00;2.50;99.90
29341;DHT22;16337;59.536;13.468;2023-02-15T13:31:28;2.50;99.90
29341;DHT22;16337;59.536;13.468;2023-02-15T13:34:12;2.50;99.90
29341;DHT22;16337;59.536;13.468;2023-02-15T13:42:24;2.50;99.90
29341;DHT22;16337;59.536;13.468;2023-02-15T13:45:21;2.60;99.90
29341;DHT22;16337;59.536;13.468;2023-02-15T13:50:54;2.50;99.90
29341;DHT22;16337;59.536;13.468;2023-02-15T14:01:38;2.50;99.90
29341;DHT22;16337;59.536;13.468;2023-02-15T14:19:18;2.50;99.90
29341;DHT22;16337;59.536;13.468;2023-02-15T14:21:54;2.40;99.90
29341;DHT22;16337;59.536;13.468;2023-02-15T14:24:33;2.40;99.90
29341;DHT22;16337;59.536;13.468;2023-02-15T14:30:00;2.50;99.90
29341;DHT22;16337;59.536;13.468;2023-02-15T14:32:39;2.40;99.90
29341;DHT22;16337;59.536;13.468;2023-02-15T14:35:14;2.40;99.90
29341;DHT22;16337;59.536;13.468;2023-02-15T14:40:40;2.40;99.90
29341;DHT22;16337;59.536;13.468;2023-02-15T14:48:55;2.40;99.90
29341;DHT22;16337;59.536;13.468;2023-02-15T14:54:10;2.30;99.90
29341;DHT22;16337;59.536;13.468;2023-02-15T14:56:36;2.30;99.90
29341;DHT22;16337;59.536;13.468;2023-02-15T14:59:23;2.30;99.90
29341;DHT22;16337;59.536;13.468;2023-02-15T15:02:09;2.30;99.90
29341;DHT22;16337;59.536;13.468;2023-02-15T15:04:42;2.30;99.90
29341;DHT22;16337;59.536;13.468;2023-02-15T15:07:46;2.20;99.90
29341;DHT22;16337;59.536;13.468;2023-02-15T15:15:44;2.30;99.90
29341;DHT22;16337;59.536;13.468;2023-02-15T15:18:43;2.20;99.90
29341;DHT22;16337;59.536;13.468;2023-02-15T15:21:09;2.20;99.90
29341;DHT22;16337;59.536;13.468;2023-02-15T15:23:44;2.20;99.90
29341;DHT22;16337;59.536;13.468;2023-02-15T15:26:32;2.20;99.90
29341;DHT22;16337;59.536;13.468;2023-02-15T15:29:06;2.20;99.90
29341;DHT22;16337;59.536;13.468;2023-02-15T15:32:07;2.20;99.90
29341;DHT22;16337;59.536;13.468;2023-02-15T15:46:12;2.10;99.90
29341;DHT22;16337;59.536;13.468;2023-02-15T15:48:41;2.10;99.90
29341;DHT22;16337;59.536;13.468;2023-02-15T15:51:18;2.10;99.90
29341;DHT22;16337;59.536;13.468;2023-02-15T15:53:46;2.10;99.90
29341;DHT22;16337;59.536;13.468;2023-02-15T15:56:22;2.00;99.90
29341;DHT22;16337;59.536;13.468;2023-02-15T15:59:04;2.00;99.90
29341;DHT22;16337;59.536;13.468;2023-02-15T16:01:38;2.10;99.90
29341;DHT22;16337;59.536;13.468;2023-02-15T16:04:05;2.00;99.90
29341;DHT22;16337;59.536;13.468;2023-02-15T16:08:56;2.10;99.90
29341;DHT22;16337;59.536;13.468;2023-02-15T16:11:29;2.00;99.90
29341;DHT22;16337;59.536;13.468;2023-02-15T16:13:55;2.00;99.90
29341;DHT22;16337;59.536;13.468;2023-02-15T16:16:23;2.00;99.90
29341;DHT22;16337;59.536;13.468;2023-02-15T16:18:50;2.00;99.90
29341;DHT22;16337;59.536;13.468;2023-02-15T16:21:23;2.00;99.90
29341;DHT22;16337;59.536;13.468;2023-02-15T16:24:15;2.00;99.90
29341;DHT22;16337;59.536;13.468;2023-02-15T16:27:05;2.10;99.90
29341;DHT22;16337;59.536;13.468;2023-02-15T16:29:34;2.10;99.90
29341;DHT22;16337;59.536;13.468;2023-02-15T16:32:15;2.00;99.90
29341;DHT22;16337;59.536;13.468;2023-02-15T16:37:21;2.00;99.90
29341;DHT22;16337;59.536;13.468;2023-02-15T16:39:49;2.00;99.90
29341;DHT22;16337;59.536;13.468;2023-02-15T16:42:16;2.00;99.90
29341;DHT22;16337;59.536;13.468;2023-02-15T16:44:47;2.00;99.90
29341;DHT22;16337;59.536;13.468;2023-02-15T16:47:29;2.10;99.90
29341;DHT22;16337;59.536;13.468;2023-02-15T16:50:00;2.10;99.90
29341;DHT22;16337;59.536;13.468;2023-02-15T16:52:28;2.10;99.90
29341;DHT22;16337;59.536;13.468;2023-02-15T16:55:02;2.00;99.90
29341;DHT22;16337;59.536;13.468;2023-02-15T16:57:35;2.00;99.90
29341;DHT22;16337;59.536;13.468;2023-02-15T17:00:07;2.10;99.90
29341;DHT22;16337;59.536;13.468;2023-02-15T17:03:37;2.00;99.90
29341;DHT22;16337;59.536;13.468;2023-02-15T17:13:25;2.00;99.90
29341;DHT22;16337;59.536;13.468;2023-02-15T17:18:46;2.00;99.90
29341;DHT22;16337;59.536;13.468;2023-02-15T17:21:20;2.10;99.90
29341;DHT22;16337;59.536;13.468;2023-02-15T17:23:51;2.10;99.90
29341;DHT22;16337;59.536;13.468;2023-02-15T17:26:29;2.10;99.90
29341;DHT22;16337;59.536;13.468;2023-02-15T17:31:48;2.00;99.90
29341;DHT22;16337;59.536;13.468;2023-02-15T17:39:49;2.10;99.90
29341;DHT22;16337;59.536;13.468;2023-02-15T17:42:15;2.00;99.90
29341;DHT22;16337;59.536;13.468;2023-02-15T17:44:40;2.10;99.90
29341;DHT22;16337;59.536;13.468;2023-02-15T17:47:06;2.00;99.90
29341;DHT22;16337;59.536;13.468;2023-02-15T17:49:32;2.00;99.90
29341;DHT22;16337;59.536;13.468;2023-02-15T17:52:02;2.00;99.90
29341;DHT22;16337;59.536;13.468;2023-02-15T17:54:28;2.00;99.90
29341;DHT22;16337;59.536;13.468;2023-02-15T17:57:14;2.00;99.90
29341;DHT22;16337;59.536;13.468;2023-02-15T17:59:41;2.10;99.90
29341;DHT22;16337;59.536;13.468;2023-02-15T18:02:27;2.10;99.90
29341;DHT22;16337;59.536;13.468;2023-02-15T18:05:15;2.10;99.90
29341;DHT22;16337;59.536;13.468;2023-02-15T18:07:59;2.10;99.90
29341;DHT22;16337;59.536;13.468;2023-02-15T18:10:44;2.10;99.90
29341;DHT22;16337;59.536;13.468;2023-02-15T18:13:28;2.10;99.90
29341;DHT22;16337;59.536;13.468;2023-02-15T18:15:54;2.10;99.90
29341;DHT22;16337;59.536;13.468;2023-02-15T18:18:21;2.10;99.90
29341;DHT22;16337;59.536;13.468;2023-02-15T18:20:48;2.10;99.90
29341;DHT22;16337;59.536;13.468;2023-02-15T18:23:14;2.10;99.90
29341;DHT22;16337;59.536;13.468;2023-02-15T18:25:40;2.10;99.90
29341;DHT22;16337;59.536;13.468;2023-02-15T18:28:08;2.10;99.90
29341;DHT22;16337;59.536;13.468;2023-02-15T18:30:35;2.10;99.90
29341;DHT22;16337;59.536;13.468;2023-02-15T18:33:01;2.10;99.90
29341;DHT22;16337;59.536;13.468;2023-02-15T18:35:31;2.10;99.90
29341;DHT22;16337;59.536;13.468;2023-02-15T18:37:59;2.10;99.90
29341;DHT22;16337;59.536;13.468;2023-02-15T18:40:26;2.10;99.90
29341;DHT22;16337;59.536;13.468;2023-02-15T18:42:53;2.10;99.90
29341;DHT22;16337;59.536;13.468;2023-02-15T18:45:26;2.10;99.90
29341;DHT22;16337;59.536;13.468;2023-02-15T18:47:57;2.10;99.90
29341;DHT22;16337;59.536;13.468;2023-02-15T18:50:26;2.10;99.90
29341;DHT22;16337;59.536;13.468;2023-02-15T18:52:52;2.10;99.90
29341;DHT22;16337;59.536;13.468;2023-02-15T18:55:23;2.10;99.90
29341;DHT22;16337;59.536;13.468;2023-02-15T18:57:51;2.10;99.90
29341;DHT22;16337;59.536;13.468;2023-02-15T19:02:44;2.20;99.90
29341;DHT22;16337;59.536;13.468;2023-02-15T19:05:10;2.20;99.90
29341;DHT22;16337;59.536;13.468;2023-02-15T19:07:37;2.20;99.90
29341;DHT22;16337;59.536;13.468;2023-02-15T19:10:05;2.20;99.90